createdAt,value
2023-02-13T00:00:53.453Z,1.73
2023-02-13T00:02:26.655Z,1.70
2023-02-13T00:03:59.660Z,1.75
2023-02-13T00:05:31.290Z,1.66
2023-02-13T00:07:02.906Z,1.57
2023-02-13T00:08:34.525Z,1.60
2023-02-13T00:10:07.294Z,1.51
2023-02-13T00:11:38.904Z,1.56
2023-02-13T00:13:10.539Z,1.61
2023-02-13T00:14:42.166Z,1.43
2023-02-13T00:16:13.892Z,1.53
2023-02-13T00:17:46.904Z,1.52
2023-02-13T00:19:18.563Z,1.51
2023-02-13T00:20:58.221Z,1.54
2023-02-13T00:22:30.119Z,1.56
2023-02-13T00:24:01.750Z,1.65
2023-02-13T00:25:33.380Z,1.60
2023-02-13T00:27:04.986Z,1.60
2023-02-13T00:28:36.841Z,1.46
2023-02-13T00:30:09.451Z,1.33
2023-02-13T00:31:41.182Z,1.35
2023-02-13T00:33:16.466Z,1.42
2023-02-13T00:36:40.497Z,1.43
2023-02-13T00:38:14.589Z,1.40
2023-02-13T00:39:46.241Z,1.32
2023-02-13T00:41:18.035Z,1.36
2023-02-13T00:42:49.653Z,1.20
2023-02-13T00:44:21.265Z,1.08
2023-02-13T00:45:52.980Z,1.16
2023-02-13T00:47:24.645Z,1.27
2023-02-13T00:48:57.643Z,1.35
2023-02-13T00:50:29.265Z,1.16
2023-02-13T00:52:00.931Z,1.24
2023-02-13T00:53:32.898Z,1.25
2023-02-13T00:55:05.076Z,1.12
2023-02-13T00:56:36.726Z,1.10
2023-02-13T00:58:08.375Z,1.13
2023-02-13T00:59:39.978Z,1.23
2023-02-13T01:01:11.667Z,1.23
2023-02-13T01:02:43.359Z,1.18
2023-02-13T01:04:16.422Z,1.21
2023-02-13T01:05:48.149Z,1.24
2023-02-13T01:07:19.768Z,1.20
2023-02-13T01:08:51.383Z,1.24
2023-02-13T01:10:23.035Z,1.28
2023-02-13T01:11:54.652Z,1.37
2023-02-13T01:13:26.303Z,1.43
2023-02-13T01:14:57.909Z,1.54
2023-02-13T01:16:29.535Z,1.53
2023-02-13T01:18:01.280Z,1.53
2023-02-13T01:19:34.432Z,1.60
2023-02-13T01:21:07.085Z,1.43
2023-02-13T01:22:39.025Z,1.55
2023-02-13T01:24:10.674Z,1.49
2023-02-13T01:25:42.381Z,1.53
2023-02-13T01:27:13.993Z,1.47
2023-02-13T01:28:45.757Z,1.61
2023-02-13T01:30:18.231Z,1.53
2023-02-13T01:31:50.000Z,1.56
2023-02-13T01:33:22.056Z,1.65
2023-02-13T01:34:55.001Z,1.52
2023-02-13T01:36:26.763Z,1.65
2023-02-13T01:37:58.385Z,1.67
2023-02-13T01:39:30.138Z,1.45
2023-02-13T01:41:01.810Z,1.43
2023-02-13T01:42:34.716Z,1.48
2023-02-13T01:44:39.372Z,1.50
2023-02-13T01:46:11.220Z,1.37
2023-02-13T01:47:45.316Z,1.39
2023-02-13T01:49:18.767Z,1.44
2023-02-13T01:50:52.811Z,1.44
2023-02-13T01:52:24.456Z,1.51
2023-02-13T01:53:58.682Z,1.55
2023-02-13T01:55:30.332Z,1.47
2023-02-13T01:57:04.224Z,1.48
2023-02-13T01:58:36.259Z,1.41
2023-02-13T02:00:09.463Z,1.40
2023-02-13T02:01:41.262Z,1.42
2023-02-13T02:03:14.225Z,1.51
2023-02-13T02:04:45.889Z,1.60
2023-02-13T02:06:21.242Z,1.55
2023-02-13T02:07:52.888Z,1.52
2023-02-13T02:09:26.170Z,1.66
2023-02-13T02:10:59.738Z,1.66
2023-02-13T02:12:36.409Z,1.62
2023-02-13T02:14:08.346Z,1.64
2023-02-13T02:15:40.662Z,1.51
2023-02-13T02:17:12.381Z,1.62
2023-02-13T02:18:46.619Z,1.74
2023-02-13T02:20:25.414Z,1.69
2023-02-13T02:22:34.137Z,1.70
2023-02-13T02:24:17.920Z,1.78
2023-02-13T02:26:12.780Z,1.80
2023-02-13T02:28:10.803Z,1.75
2023-02-13T02:30:03.414Z,1.68
2023-02-13T02:31:48.974Z,1.64
2023-02-13T02:33:24.605Z,1.72
2023-02-13T02:34:58.907Z,1.69
2023-02-13T02:36:36.647Z,1.59
2023-02-13T02:38:25.971Z,1.69
2023-02-13T02:40:05.624Z,1.61
2023-02-13T02:41:46.154Z,1.63
2023-02-13T02:43:26.137Z,1.75
2023-02-13T02:45:02.467Z,1.78
2023-02-13T02:46:36.281Z,1.75
2023-02-13T02:48:29.172Z,1.73
2023-02-13T02:50:09.064Z,1.77
2023-02-13T02:51:43.734Z,1.81
2023-02-13T02:53:19.106Z,1.78
2023-02-13T02:55:06.492Z,1.77
2023-02-13T02:56:40.162Z,1.83
2023-02-13T02:58:34.179Z,1.87
2023-02-13T03:00:25.615Z,1.84
2023-02-13T03:02:16.125Z,1.83
2023-02-13T03:04:07.853Z,1.87
2023-02-13T03:05:58.190Z,1.88
2023-02-13T03:07:29.800Z,1.84
2023-02-13T03:09:20.432Z,1.81
2023-02-13T03:11:10.537Z,1.81
2023-02-13T03:13:02.952Z,1.68
2023-02-13T03:14:34.917Z,1.74
2023-02-13T03:16:25.341Z,1.61
2023-02-13T03:18:15.595Z,1.61
2023-02-13T03:20:15.298Z,1.71
2023-02-13T03:22:07.170Z,1.70
2023-02-13T03:23:44.875Z,1.66
2023-02-13T03:25:34.258Z,1.61
2023-02-13T03:27:08.540Z,1.67
2023-02-13T03:29:00.573Z,1.65
2023-02-13T03:30:39.065Z,1.75
2023-02-13T03:32:12.363Z,1.76
2023-02-13T03:33:52.145Z,1.74
2023-02-13T03:35:48.107Z,1.79
2023-02-13T03:37:39.504Z,1.81
2023-02-13T03:39:12.590Z,1.70
2023-02-13T03:41:07.312Z,1.52
2023-02-13T03:42:41.059Z,1.73
2023-02-13T03:44:15.648Z,1.83
2023-02-13T03:45:53.059Z,1.84
2023-02-13T03:47:24.777Z,1.87
2023-02-13T03:49:15.077Z,1.94
2023-02-13T03:50:48.058Z,1.88
2023-02-13T03:52:22.751Z,1.88
2023-02-13T03:53:56.033Z,1.86
2023-02-13T03:55:47.406Z,1.63
2023-02-13T03:57:38.852Z,1.63
2023-02-13T03:59:17.313Z,1.68
2023-02-13T04:00:50.566Z,1.77
2023-02-13T04:02:24.617Z,1.68
2023-02-13T04:03:57.589Z,1.80
2023-02-13T04:05:30.129Z,1.71
2023-02-13T04:07:04.698Z,1.62
2023-02-13T04:08:36.363Z,1.62
2023-02-13T04:10:10.149Z,1.70
2023-02-13T04:11:43.562Z,1.63
2023-02-13T04:13:16.263Z,1.72
2023-02-13T04:14:49.858Z,1.78
2023-02-13T04:16:22.089Z,1.84
2023-02-13T04:17:55.671Z,1.78
2023-02-13T04:19:27.323Z,1.56
2023-02-13T04:21:01.979Z,1.54
2023-02-13T04:22:34.983Z,1.58
2023-02-13T04:24:07.482Z,1.58
2023-02-13T04:25:40.366Z,1.76
2023-02-13T04:27:12.809Z,1.80
2023-02-13T04:28:44.473Z,1.60
2023-02-13T04:30:16.229Z,1.50
2023-02-13T04:31:47.953Z,1.55
2023-02-13T04:33:19.633Z,1.74
2023-02-13T04:34:51.255Z,1.79
2023-02-13T04:36:22.889Z,1.84
2023-02-13T04:37:55.845Z,1.84
2023-02-13T04:39:27.491Z,1.80
2023-02-13T04:40:59.473Z,1.81
2023-02-13T04:42:31.333Z,1.76
2023-02-13T04:44:03.024Z,1.77
2023-02-13T04:45:34.689Z,1.85
2023-02-13T04:47:06.290Z,1.88
2023-02-13T04:48:38.867Z,1.87
2023-02-13T04:50:10.961Z,1.93
2023-02-13T04:51:43.507Z,1.92
2023-02-13T04:53:20.200Z,1.68
2023-02-13T04:54:56.864Z,1.76
2023-02-13T04:56:44.247Z,1.83
2023-02-13T04:58:24.441Z,1.83
2023-02-13T05:00:13.175Z,1.64
2023-02-13T05:02:14.283Z,1.53
2023-02-13T05:03:52.068Z,1.65
2023-02-13T05:05:49.925Z,1.67
2023-02-13T05:07:35.628Z,1.61
2023-02-13T05:09:15.125Z,1.52
2023-02-13T05:10:54.312Z,1.46
2023-02-13T05:12:51.833Z,1.54
2023-02-13T05:14:28.661Z,1.44
2023-02-13T05:16:02.510Z,1.46
2023-02-13T05:17:43.170Z,1.47
2023-02-13T05:19:23.891Z,1.48
2023-02-13T05:21:31.713Z,1.49
2023-02-13T05:24:06.807Z,1.70
2023-02-13T05:25:47.196Z,1.44
2023-02-13T05:27:22.578Z,1.44
2023-02-13T05:29:12.807Z,1.58
2023-02-13T05:30:44.453Z,1.56
2023-02-13T05:32:16.317Z,1.53
2023-02-13T05:33:48.024Z,1.47
2023-02-13T05:35:19.625Z,1.48
2023-02-13T05:36:52.581Z,1.45
2023-02-13T05:38:25.956Z,1.49
2023-02-13T05:39:57.578Z,1.52
2023-02-13T05:41:30.538Z,1.64
2023-02-13T05:43:02.192Z,1.76
2023-02-13T05:44:33.802Z,1.79
2023-02-13T05:46:05.974Z,1.82
2023-02-13T05:47:37.799Z,1.82
2023-02-13T05:49:09.870Z,1.78
2023-02-13T05:50:41.654Z,1.72
2023-02-13T05:52:13.233Z,1.71
2023-02-13T05:53:44.852Z,1.51
2023-02-13T05:55:16.560Z,1.48
2023-02-13T05:56:49.659Z,1.55
2023-02-13T05:58:21.371Z,1.55
2023-02-13T05:59:52.996Z,1.59
2023-02-13T06:01:24.819Z,1.40
2023-02-13T06:02:56.453Z,1.52
2023-02-13T06:04:28.137Z,1.62
2023-02-13T06:05:59.766Z,1.60
2023-02-13T06:07:31.362Z,1.59
2023-02-13T06:09:03.069Z,1.61
2023-02-13T06:10:34.939Z,1.50
2023-02-13T06:12:08.135Z,1.54
2023-02-13T06:13:42.758Z,1.46
2023-02-13T06:15:14.379Z,1.33
2023-02-13T06:16:46.015Z,1.32
2023-02-13T06:18:17.641Z,1.38
2023-02-13T06:19:49.325Z,1.51
2023-02-13T06:21:22.503Z,1.55
2023-02-13T06:22:54.300Z,1.47
2023-02-13T06:24:26.162Z,1.54
2023-02-13T06:26:02.049Z,1.52
2023-02-13T06:27:35.167Z,1.65
2023-02-13T06:29:07.010Z,1.73
2023-02-13T06:30:38.683Z,1.62
2023-02-13T06:32:10.367Z,1.59
2023-02-13T06:33:42.024Z,1.63
2023-02-13T06:35:13.787Z,1.64
2023-02-13T06:36:45.395Z,1.54
2023-02-13T06:38:19.217Z,1.30
2023-02-13T06:39:50.826Z,1.44
2023-02-13T06:41:22.486Z,1.56
2023-02-13T06:42:55.607Z,1.62
2023-02-13T06:44:27.242Z,1.51
2023-02-13T06:45:58.921Z,1.55
2023-02-13T06:47:30.536Z,1.66
2023-02-13T06:49:02.189Z,1.62
2023-02-13T06:50:34.899Z,1.63
2023-02-13T06:52:06.579Z,1.58
2023-02-13T06:53:38.250Z,1.48
2023-02-13T06:55:09.859Z,1.43
2023-02-13T06:56:41.656Z,1.43
2023-02-13T06:58:14.679Z,1.55
2023-02-13T06:59:46.316Z,1.51
2023-02-13T07:01:17.998Z,1.61
2023-02-13T07:02:49.694Z,1.65
2023-02-13T07:04:21.347Z,1.50
2023-02-13T07:05:53.027Z,1.53
2023-02-13T07:07:24.788Z,1.59
2023-02-13T07:08:56.516Z,1.53
2023-02-13T07:10:28.253Z,1.55
2023-02-13T07:12:02.913Z,1.64
2023-02-13T07:13:35.907Z,1.48
2023-02-13T07:15:08.440Z,1.28
2023-02-13T07:16:40.025Z,1.39
2023-02-13T07:18:11.679Z,1.41
2023-02-13T07:19:43.294Z,1.50
2023-02-13T07:21:14.907Z,1.60
2023-02-13T07:22:46.519Z,1.65
2023-02-13T07:24:18.114Z,1.63
2023-02-13T07:25:49.786Z,1.62
2023-02-13T07:27:21.423Z,1.38
2023-02-13T07:29:09.251Z,1.34
2023-02-13T07:30:42.417Z,1.28
2023-02-13T07:32:14.141Z,1.28
2023-02-13T07:33:48.488Z,1.37
2023-02-13T07:35:20.078Z,1.47
2023-02-13T07:36:52.152Z,1.56
2023-02-13T07:38:23.801Z,1.53
2023-02-13T07:39:55.417Z,1.45
2023-02-13T07:41:27.179Z,1.42
2023-02-13T07:43:00.395Z,1.44
2023-02-13T07:44:33.422Z,1.51
2023-02-13T07:46:05.781Z,1.38
2023-02-13T07:47:37.464Z,1.41
2023-02-13T07:49:09.164Z,1.31
2023-02-13T07:50:40.794Z,1.31
2023-02-13T07:52:12.439Z,1.40
2023-02-13T07:53:44.456Z,1.43
2023-02-13T07:55:16.356Z,1.46
2023-02-13T07:56:47.985Z,1.45
2023-02-13T07:58:19.584Z,1.32
2023-02-13T07:59:52.637Z,1.52
2023-02-13T08:01:24.438Z,1.52
2023-02-13T08:02:57.839Z,1.53
2023-02-13T08:04:29.528Z,1.41
2023-02-13T08:06:01.188Z,1.38
2023-02-13T08:07:32.770Z,1.33
2023-02-13T08:09:22.945Z,1.48
2023-02-13T08:11:13.122Z,1.53
2023-02-13T08:12:44.742Z,1.60
2023-02-13T08:14:16.593Z,1.58
2023-02-13T08:15:49.545Z,1.63
2023-02-13T08:17:21.235Z,1.56
2023-02-13T08:18:53.161Z,1.44
2023-02-13T08:20:25.202Z,1.50
2023-02-13T08:21:56.978Z,1.53
2023-02-13T08:23:28.853Z,1.34
2023-02-13T08:25:00.562Z,1.33
2023-02-13T08:26:32.184Z,1.36
2023-02-13T08:28:04.066Z,1.46
2023-02-13T08:29:35.732Z,1.50
2023-02-13T08:31:12.045Z,1.51
2023-02-13T08:32:53.849Z,1.47
2023-02-13T08:34:26.339Z,1.50
2023-02-13T08:35:58.447Z,1.47
2023-02-13T08:37:30.343Z,1.43
2023-02-13T08:39:02.028Z,1.45
2023-02-13T08:40:34.047Z,1.37
2023-02-13T08:42:05.764Z,1.54
2023-02-13T08:43:37.416Z,1.65
2023-02-13T08:45:11.618Z,1.72
2023-02-13T08:46:44.633Z,1.71
2023-02-13T08:48:16.242Z,1.76
2023-02-13T08:49:47.862Z,1.71
2023-02-13T08:51:19.612Z,1.56
2023-02-13T08:52:51.233Z,1.69
2023-02-13T08:54:22.863Z,1.65
2023-02-13T08:55:54.714Z,1.62
2023-02-13T08:57:26.545Z,1.64
2023-02-13T08:58:58.284Z,1.48
2023-02-13T09:00:29.914Z,1.61
2023-02-13T09:02:02.903Z,1.63
2023-02-13T09:03:35.126Z,1.62
2023-02-13T09:05:06.972Z,1.53
2023-02-13T09:06:38.590Z,1.55
2023-02-13T09:08:11.809Z,1.62
2023-02-13T09:09:43.381Z,1.55
2023-02-13T09:11:15.013Z,1.64
2023-02-13T09:12:52.328Z,1.57
2023-02-13T09:14:25.071Z,1.66
2023-02-13T09:15:59.217Z,1.79
2023-02-13T09:17:32.501Z,1.88
2023-02-13T09:19:04.378Z,1.86
2023-02-13T09:20:36.371Z,1.89
2023-02-13T09:22:08.037Z,1.95
2023-02-13T09:23:40.346Z,2.01
2023-02-13T09:25:11.950Z,2.01
2023-02-13T09:26:43.657Z,1.98
2023-02-13T09:28:15.310Z,1.83
2023-02-13T09:29:47.272Z,1.83
2023-02-13T09:31:19.916Z,1.77
2023-02-13T09:32:53.397Z,1.82
2023-02-13T09:34:25.065Z,1.82
2023-02-13T09:35:56.987Z,1.88
2023-02-13T09:37:28.844Z,1.88
2023-02-13T09:39:00.823Z,1.94
2023-02-13T09:40:39.543Z,1.97
2023-02-13T09:42:16.797Z,2.03
2023-02-13T09:43:49.695Z,1.94
2023-02-13T09:45:21.852Z,1.86
2023-02-13T09:46:53.550Z,1.80
2023-02-13T09:48:29.030Z,1.78
2023-02-13T09:50:02.569Z,1.75
2023-02-13T09:51:34.617Z,1.75
2023-02-13T09:53:06.319Z,1.79
2023-02-13T09:54:38.176Z,1.91
2023-02-13T09:56:11.324Z,1.91
2023-02-13T09:57:44.169Z,1.89
2023-02-13T09:59:24.028Z,1.92
2023-02-13T10:00:57.242Z,1.84
2023-02-13T10:02:40.497Z,1.96
2023-02-13T10:04:25.491Z,1.88
2023-02-13T10:06:02.127Z,1.87
2023-02-13T10:07:37.167Z,1.90
2023-02-13T10:09:11.925Z,1.84
2023-02-13T10:10:50.560Z,1.96
2023-02-13T10:12:46.997Z,2.10
2023-02-13T10:14:19.386Z,2.16
2023-02-13T10:15:53.795Z,2.14
2023-02-13T10:17:28.521Z,2.22
2023-02-13T10:19:02.889Z,2.15
2023-02-13T10:20:37.516Z,2.27
2023-02-13T10:22:11.774Z,2.39
2023-02-13T10:23:44.690Z,2.38
2023-02-13T10:25:17.427Z,2.25
2023-02-13T10:26:49.087Z,2.18
2023-02-13T10:28:28.700Z,2.14
2023-02-13T10:30:12.648Z,2.14
2023-02-13T10:31:44.889Z,2.19
2023-02-13T10:33:21.290Z,2.32
2023-02-13T10:34:52.968Z,2.41
2023-02-13T10:36:27.200Z,2.43
2023-02-13T10:37:59.878Z,2.38
2023-02-13T10:39:31.626Z,2.32
2023-02-13T10:41:17.259Z,2.35
2023-02-13T10:42:53.242Z,2.30
2023-02-13T10:44:35.172Z,2.25
2023-02-13T10:46:14.757Z,2.38
2023-02-13T10:47:54.281Z,2.44
2023-02-13T10:49:49.436Z,2.52
2023-02-13T10:51:26.891Z,2.48
2023-02-13T10:53:06.032Z,2.40
2023-02-13T10:54:52.655Z,2.48
2023-02-13T10:56:26.701Z,2.40
2023-02-13T10:58:09.107Z,2.44
2023-02-13T10:59:50.555Z,2.50
2023-02-13T11:01:24.565Z,2.55
2023-02-13T11:02:56.399Z,2.57
2023-02-13T11:04:31.410Z,2.56
2023-02-13T11:06:06.662Z,2.57
2023-02-13T11:07:42.500Z,2.60
2023-02-13T11:09:14.149Z,2.71
2023-02-13T11:10:45.790Z,2.63
2023-02-13T11:12:24.807Z,2.70
2023-02-13T11:14:08.317Z,2.67
2023-02-13T11:15:40.075Z,2.54
2023-02-13T11:17:15.216Z,2.55
2023-02-13T11:18:51.344Z,2.50
2023-02-13T11:20:28.544Z,2.54
2023-02-13T11:22:03.327Z,2.65
2023-02-13T11:23:41.495Z,2.69
2023-02-13T11:25:26.757Z,2.76
2023-02-13T11:27:02.721Z,2.66
2023-02-13T11:28:36.317Z,2.59
2023-02-13T11:30:29.338Z,2.56
2023-02-13T11:32:17.282Z,2.77
2023-02-13T11:33:48.971Z,2.92
2023-02-13T11:35:28.662Z,2.87
2023-02-13T11:37:24.907Z,2.93
2023-02-13T11:39:02.292Z,2.91
2023-02-13T11:40:34.028Z,2.82
2023-02-13T11:42:06.411Z,2.86
2023-02-13T11:43:43.619Z,2.91
2023-02-13T11:45:21.094Z,2.93
2023-02-13T11:46:53.678Z,2.96
2023-02-13T11:48:25.462Z,2.92
2023-02-13T11:49:57.115Z,2.95
2023-02-13T11:51:36.597Z,2.79
2023-02-13T11:53:09.303Z,2.95
2023-02-13T11:54:42.827Z,2.97
2023-02-13T11:56:17.787Z,2.86
2023-02-13T11:57:56.940Z,2.87
2023-02-13T11:59:31.217Z,2.76
2023-02-13T12:01:27.034Z,2.97
2023-02-13T12:02:58.809Z,2.98
2023-02-13T12:04:30.780Z,3.06
2023-02-13T12:06:04.786Z,2.83
2023-02-13T12:07:39.592Z,2.91
2023-02-13T12:09:12.752Z,2.98
2023-02-13T12:10:46.293Z,3.03
2023-02-13T12:12:20.080Z,3.03
2023-02-13T12:13:52.081Z,3.21
2023-02-13T12:15:25.569Z,3.20
2023-02-13T12:16:59.677Z,2.98
2023-02-13T12:18:35.019Z,2.94
2023-02-13T12:20:12.754Z,3.18
2023-02-13T12:22:08.610Z,3.28
2023-02-13T12:23:42.400Z,3.36
2023-02-13T12:25:51.537Z,3.44
2023-02-13T12:27:28.065Z,3.38
2023-02-13T12:29:19.115Z,3.21
2023-02-13T12:31:15.931Z,3.38
2023-02-13T12:32:51.168Z,3.24
2023-02-13T12:34:30.574Z,3.22
2023-02-13T12:36:02.735Z,3.31
2023-02-13T12:37:47.233Z,3.24
2023-02-13T12:39:23.200Z,3.32
2023-02-13T12:41:14.178Z,3.15
2023-02-13T12:42:50.518Z,3.18
2023-02-13T12:44:31.937Z,3.26
2023-02-13T12:46:05.666Z,3.31
2023-02-13T12:47:39.008Z,3.32
2023-02-13T12:49:20.276Z,3.35
2023-02-13T12:50:57.215Z,3.42
2023-02-13T12:52:36.462Z,3.31
2023-02-13T12:54:15.880Z,3.31
2023-02-13T12:55:57.874Z,3.30
2023-02-13T12:57:37.489Z,3.34
2023-02-13T12:59:13.330Z,3.40
2023-02-13T13:00:49.653Z,3.46
2023-02-13T13:02:47.956Z,3.35
2023-02-13T13:04:21.848Z,2.93
2023-02-13T13:06:11.755Z,2.84
2023-02-13T13:07:52.495Z,3.07
2023-02-13T13:09:39.634Z,3.34
2023-02-13T13:11:18.929Z,3.48
2023-02-13T13:12:53.164Z,3.23
2023-02-13T13:14:29.533Z,3.31
2023-02-13T13:16:02.925Z,3.37
2023-02-13T13:17:42.810Z,3.33
2023-02-13T13:19:20.498Z,3.55
2023-02-13T13:21:11.882Z,3.40
2023-02-13T13:22:45.213Z,3.41
2023-02-13T13:24:24.118Z,3.22
2023-02-13T13:26:00.787Z,3.31
2023-02-13T13:27:33.853Z,3.22
2023-02-13T13:29:06.791Z,3.42
2023-02-13T13:30:39.809Z,3.43
2023-02-13T13:32:13.336Z,3.42
2023-02-13T13:33:46.069Z,3.56
2023-02-13T13:35:18.475Z,3.41
2023-02-13T13:36:51.476Z,3.28
2023-02-13T13:38:25.485Z,3.44
2023-02-13T13:39:59.563Z,3.53
2023-02-13T13:41:35.542Z,3.50
2023-02-13T13:43:14.102Z,3.36
2023-02-13T13:44:56.367Z,3.61
2023-02-13T13:46:34.487Z,3.64
2023-02-13T13:48:41.344Z,3.54
2023-02-13T13:50:18.603Z,3.58
2023-02-13T13:51:50.210Z,3.64
2023-02-13T13:53:23.545Z,3.51
2023-02-13T13:54:55.723Z,3.49
2023-02-13T13:56:30.524Z,3.64
2023-02-13T13:58:02.326Z,3.63
2023-02-13T14:00:23.079Z,3.48
2023-02-13T14:02:16.963Z,3.30
2023-02-13T14:03:48.979Z,3.34
2023-02-13T14:05:27.967Z,3.25
2023-02-13T14:07:16.020Z,3.46
2023-02-13T14:09:09.775Z,3.58
2023-02-13T14:11:24.973Z,3.63
2023-02-13T14:13:00.730Z,3.57
2023-02-13T14:14:49.895Z,3.36
2023-02-13T14:16:37.109Z,3.48
2023-02-13T14:18:19.224Z,3.41
2023-02-13T14:19:51.988Z,3.57
2023-02-13T14:21:24.041Z,3.68
2023-02-13T14:22:55.683Z,3.68
2023-02-13T14:24:34.515Z,3.58
2023-02-13T14:26:17.950Z,3.59
2023-02-13T14:27:56.107Z,3.63
2023-02-13T14:29:32.806Z,3.55
2023-02-13T14:31:05.996Z,3.46
2023-02-13T14:32:38.111Z,3.53
2023-02-13T14:34:18.341Z,3.60
2023-02-13T14:36:09.954Z,3.58
2023-02-13T14:37:50.185Z,3.77
2023-02-13T14:39:25.733Z,3.57
2023-02-13T14:40:58.002Z,3.53
2023-02-13T14:42:29.897Z,3.68
2023-02-13T14:44:01.690Z,3.87
2023-02-13T14:45:44.662Z,4.16
2023-02-13T14:47:24.690Z,3.97
2023-02-13T14:49:05.261Z,3.90
2023-02-13T14:50:48.658Z,3.94
2023-02-13T14:52:26.454Z,3.92
2023-02-13T14:54:03.953Z,4.02
2023-02-13T14:55:38.218Z,3.87
2023-02-13T14:57:14.397Z,3.84
2023-02-13T14:58:48.944Z,3.46
2023-02-13T15:00:28.351Z,3.44
2023-02-13T15:02:04.681Z,3.68
2023-02-13T15:03:38.641Z,3.79
2023-02-13T15:05:13.020Z,3.73
2023-02-13T15:06:46.076Z,3.61
2023-02-13T15:08:18.818Z,3.55
2023-02-13T15:09:54.555Z,3.61
2023-02-13T15:11:36.805Z,3.38
2023-02-13T15:13:14.192Z,3.42
2023-02-13T15:14:45.835Z,3.44
2023-02-13T15:16:19.175Z,3.27
2023-02-13T15:17:50.952Z,3.19
2023-02-13T15:19:22.965Z,3.25
2023-02-13T15:20:55.960Z,3.27
2023-02-13T15:22:32.678Z,3.40
2023-02-13T15:24:04.592Z,3.12
2023-02-13T15:25:37.333Z,3.17
2023-02-13T15:27:20.268Z,3.29
2023-02-13T15:29:01.870Z,3.19
2023-02-13T15:30:36.133Z,3.11
2023-02-13T15:32:19.809Z,3.14
2023-02-13T15:33:51.537Z,3.17
2023-02-13T15:35:24.186Z,3.02
2023-02-13T15:36:55.911Z,3.09
2023-02-13T15:38:30.777Z,3.16
2023-02-13T15:40:24.427Z,3.22
2023-02-13T15:41:56.919Z,3.04
2023-02-13T15:43:34.844Z,3.07
2023-02-13T15:45:15.749Z,3.09
2023-02-13T15:46:54.244Z,3.09
2023-02-13T15:48:25.986Z,3.16
2023-02-13T15:49:57.636Z,3.11
2023-02-13T15:51:34.059Z,3.15
2023-02-13T15:53:06.093Z,3.12
2023-02-13T15:54:47.782Z,3.08
2023-02-13T15:56:19.450Z,3.07
2023-02-13T15:57:51.790Z,3.03
2023-02-13T15:59:23.516Z,3.02
2023-02-13T16:00:55.510Z,3.08
2023-02-13T16:02:30.223Z,3.03
2023-02-13T16:04:03.667Z,2.95
2023-02-13T16:05:40.667Z,2.97
2023-02-13T16:07:12.890Z,2.83
2023-02-13T16:08:45.314Z,2.82
2023-02-13T16:10:24.342Z,2.88
2023-02-13T16:12:03.596Z,2.80
2023-02-13T16:13:35.218Z,2.89
2023-02-13T16:15:08.611Z,2.94
2023-02-13T16:16:48.385Z,2.85
2023-02-13T16:18:20.186Z,2.93
2023-02-13T16:19:56.885Z,2.88
2023-02-13T16:21:40.685Z,2.69
2023-02-13T16:23:19.545Z,2.52
2023-02-13T16:24:52.283Z,2.53
2023-02-13T16:26:25.304Z,2.59
2023-02-13T16:27:58.389Z,2.65
2023-02-13T16:29:30.163Z,2.54
2023-02-13T16:31:02.704Z,2.62
2023-02-13T16:32:38.252Z,2.60
2023-02-13T16:34:24.165Z,2.46
2023-02-13T16:35:56.642Z,2.41
2023-02-13T16:37:30.204Z,2.32
2023-02-13T16:39:11.100Z,2.37
2023-02-13T16:40:43.657Z,2.40
2023-02-13T16:42:19.240Z,2.13
2023-02-13T16:43:53.192Z,2.14
2023-02-13T16:45:25.041Z,2.23
2023-02-13T16:46:57.715Z,2.32
2023-02-13T16:48:29.358Z,2.31
2023-02-13T16:50:02.319Z,2.30
2023-02-13T16:51:36.656Z,2.23
2023-02-13T16:53:08.345Z,2.01
2023-02-13T16:54:48.008Z,2.08
2023-02-13T16:56:19.643Z,1.91
2023-02-13T16:57:52.684Z,1.83
2023-02-13T16:59:29.254Z,1.81
2023-02-13T17:01:03.543Z,1.87
2023-02-13T17:02:35.446Z,1.63
2023-02-13T17:04:13.498Z,1.66
2023-02-13T17:05:45.418Z,1.74
2023-02-13T17:07:22.171Z,1.44
2023-02-13T17:08:53.974Z,1.61
2023-02-13T17:10:30.861Z,1.67
2023-02-13T17:12:02.524Z,1.52
2023-02-13T17:13:35.560Z,1.51
2023-02-13T17:15:12.436Z,1.38
2023-02-13T17:16:44.100Z,1.48
2023-02-13T17:18:15.784Z,1.45
2023-02-13T17:19:47.437Z,1.50
2023-02-13T17:21:19.039Z,1.51
2023-02-13T17:22:51.286Z,1.48
2023-02-13T17:24:22.946Z,1.48
2023-02-13T17:25:54.521Z,1.41
2023-02-13T17:27:26.274Z,1.41
2023-02-13T17:28:59.362Z,1.47
2023-02-13T17:30:32.041Z,1.49
2023-02-13T17:32:03.716Z,1.43
2023-02-13T17:33:35.495Z,1.37
2023-02-13T17:35:07.498Z,1.41
2023-02-13T17:36:39.333Z,1.24
2023-02-13T17:38:11.049Z,1.05
2023-02-13T17:39:42.674Z,1.16
2023-02-13T17:41:14.945Z,1.15
2023-02-13T17:42:47.367Z,1.04
2023-02-13T17:44:20.560Z,1.05
2023-02-13T17:45:52.876Z,1.03
2023-02-13T17:47:24.695Z,1.08
2023-02-13T17:48:56.346Z,0.96
2023-02-13T17:50:28.645Z,0.94
2023-02-13T17:52:01.941Z,0.97
2023-02-13T17:53:33.640Z,0.78
2023-02-13T17:55:06.075Z,0.74
2023-02-13T17:56:42.933Z,0.83
2023-02-13T17:58:14.620Z,0.83
2023-02-13T17:59:50.781Z,0.73
2023-02-13T18:01:25.290Z,0.73
2023-02-13T18:02:57.302Z,0.71
2023-02-13T18:04:31.601Z,0.73
2023-02-13T18:06:03.987Z,0.72
2023-02-13T18:07:35.637Z,0.72
2023-02-13T18:09:07.280Z,0.63
2023-02-13T18:10:39.517Z,0.63
2023-02-13T18:12:18.146Z,0.65
2023-02-13T18:13:49.836Z,0.68
2023-02-13T18:15:23.155Z,0.34
2023-02-13T18:16:55.896Z,0.40
2023-02-13T18:18:27.589Z,0.63
2023-02-13T18:19:59.276Z,0.75
2023-02-13T18:21:30.888Z,0.63
2023-02-13T18:23:02.774Z,0.64
2023-02-13T18:24:35.487Z,0.60
2023-02-13T18:26:08.201Z,0.58
2023-02-13T18:27:39.817Z,0.51
2023-02-13T18:29:11.526Z,0.34
2023-02-13T18:30:47.704Z,-0.04
2023-02-13T18:32:19.423Z,0.21
2023-02-13T18:33:51.084Z,0.38
2023-02-13T18:35:22.976Z,0.35
2023-02-13T18:36:54.635Z,0.42
2023-02-13T18:38:26.445Z,0.07
2023-02-13T18:39:58.102Z,0.31
2023-02-13T18:41:37.989Z,0.33
2023-02-13T18:43:09.794Z,0.42
2023-02-13T18:44:44.178Z,0.47
2023-02-13T18:46:17.437Z,0.35
2023-02-13T18:47:49.140Z,0.18
2023-02-13T18:49:23.583Z,0.08
2023-02-13T18:50:55.259Z,0.17
2023-02-13T18:52:26.955Z,0.25
2023-02-13T18:54:00.229Z,0.27
2023-02-13T18:55:31.944Z,0.26
2023-02-13T18:57:03.745Z,0.19
2023-02-13T18:58:35.810Z,0.19
2023-02-13T19:00:08.697Z,0.15
2023-02-13T19:01:42.276Z,0.20
2023-02-13T19:03:13.976Z,0.16
2023-02-13T19:04:45.652Z,0.01
2023-02-13T19:06:18.312Z,0.00
2023-02-13T19:07:50.124Z,0.05
2023-02-13T19:09:33.339Z,0.07
2023-02-13T19:11:05.603Z,-0.01
2023-02-13T19:12:37.566Z,-0.06
2023-02-13T19:14:11.766Z,-0.10
2023-02-13T19:15:43.430Z,-0.14
2023-02-13T19:17:19.113Z,-0.17
2023-02-13T19:19:05.148Z,-0.23
2023-02-13T19:20:43.770Z,-0.06
2023-02-13T19:22:16.235Z,0.01
2023-02-13T19:23:53.722Z,-0.15
2023-02-13T19:25:26.108Z,-0.01
2023-02-13T19:27:08.304Z,0.08
2023-02-13T19:28:43.473Z,0.05
2023-02-13T19:30:20.300Z,-0.01
2023-02-13T19:31:52.327Z,-0.12
2023-02-13T19:33:25.647Z,-0.12
2023-02-13T19:34:57.820Z,-0.01
2023-02-13T19:36:30.278Z,0.07
2023-02-13T19:38:02.164Z,0.02
2023-02-13T19:39:34.305Z,0.08
2023-02-13T19:41:06.405Z,0.09
2023-02-13T19:42:40.154Z,0.03
2023-02-13T19:44:12.233Z,-0.13
2023-02-13T19:45:49.991Z,-0.14
2023-02-13T19:47:22.648Z,-0.08
2023-02-13T19:48:56.060Z,-0.03
2023-02-13T19:50:28.060Z,-0.03
2023-02-13T19:51:59.896Z,0.04
2023-02-13T19:53:31.970Z,0.03
2023-02-13T19:55:09.151Z,-0.01
2023-02-13T19:56:41.024Z,-0.09
2023-02-13T19:58:48.244Z,-0.09
2023-02-13T20:00:54.383Z,-0.05
2023-02-13T20:02:26.794Z,-0.08
2023-02-13T20:04:01.278Z,-0.03
2023-02-13T20:05:38.032Z,-0.05
2023-02-13T20:07:12.251Z,0.02
2023-02-13T20:08:44.275Z,0.04
2023-02-13T20:10:16.038Z,-0.02
2023-02-13T20:11:47.813Z,-0.06
2023-02-13T20:13:19.584Z,0.03
2023-02-13T20:14:51.307Z,0.08
2023-02-13T20:16:24.478Z,0.09
2023-02-13T20:17:56.283Z,0.09
2023-02-13T20:19:40.793Z,0.03
2023-02-13T20:21:21.923Z,-0.02
2023-02-13T20:23:06.634Z,0.06
2023-02-13T20:24:42.538Z,0.05
2023-02-13T20:26:14.768Z,-0.01
2023-02-13T20:27:46.487Z,0.07
2023-02-13T20:29:18.219Z,0.14
2023-02-13T20:30:53.377Z,0.24
2023-02-13T20:32:25.615Z,0.26
2023-02-13T20:33:58.034Z,0.22
2023-02-13T20:35:31.157Z,0.18
2023-02-13T20:37:02.905Z,0.25
2023-02-13T20:38:34.732Z,0.33
2023-02-13T20:40:07.730Z,0.31
2023-02-13T20:41:42.600Z,0.35
2023-02-13T20:43:14.346Z,0.14
2023-02-13T20:44:46.825Z,0.02
2023-02-13T20:46:18.689Z,0.02
2023-02-13T20:47:53.258Z,0.09
2023-02-13T20:49:28.002Z,0.12
2023-02-13T20:51:01.991Z,0.16
2023-02-13T20:52:34.482Z,0.10
2023-02-13T20:54:08.262Z,0.15
2023-02-13T20:55:44.020Z,0.32
2023-02-13T20:57:15.995Z,0.22
2023-02-13T20:58:51.547Z,0.20
2023-02-13T21:00:23.405Z,0.17
2023-02-13T21:01:55.165Z,0.23
2023-02-13T21:03:26.965Z,0.18
2023-02-13T21:05:01.807Z,0.21
2023-02-13T21:06:35.924Z,0.34
2023-02-13T21:08:07.689Z,0.42
2023-02-13T21:09:39.463Z,0.45
2023-02-13T21:11:11.355Z,0.43
2023-02-13T21:12:43.553Z,0.35
2023-02-13T21:14:15.268Z,0.35